Victoria International Airport

CYYJ · Brits-Columbia, Canada

METAR historie CYYJ · Victoria International Airport

Hieronder zie je METAR's van de afgelopen dagen. Kies een jaar om door oudere METAR's te bladeren, vanaf het jaar 2007.

3 december 2022

Tijd Code Weer Temp. Zicht Plafond Wind METAR/SPECI
13:00
V
4 °C 30 mi 8.600 ft 340° 340° 8 kt METAR CYYJ 032100Z 34008KT 30SM FEW019 BKN086 04/01 A3019 RMK SC2AC3 SLP225
12:00
V
4 °C 30 mi 9.200 ft 360° 360° 8 kt METAR CYYJ 032000Z 36008KT 30SM FEW028 SCT044 BKN092 04/01 A3021 RMK SC1SC4AC3 SC TR SLP231
11:00
V
3 °C 30 mi 4.200 ft 320° 320° 5 kt METAR CYYJ 031900Z 32005KT 30SM FEW025 BKN042 BKN058 03/M00 A3021 RMK SC1SC6SC1 SC TR SLP234
10:00
V
2 °C 30 mi 3.900 ft 320° 320° 8 kt METAR CYYJ 031800Z 32008KT 30SM BKN039 BKN055 02/M00 A3021 RMK SC5SC2 SLP231
09:00
V
2 °C 30 mi 3.600 ft 360° 360° 6 kt METAR CYYJ 031700Z 36006KT 30SM BKN036 BKN050 02/M01 A3017 RMK SC6SC1 SLP219
08:00
V
1 °C 20 mi 3.100 ft 010° 010° 7 kt METAR CYYJ 031600Z 01007KT 20SM FEW012 BKN031 BKN055 01/M01 A3015 RMK SC1SC6SC1 SC TR SLP212
07:15
M
1 °C 20 mi 2.300 ft 360° 360° 6 kt METAR CYYJ 031515Z 36006KT 20SM SCT012 BKN023 01/01 A3013 RMK SC3SC4 SLP204
07:00
M
1 °C 20 mi 1.100 ft 340° 340° 5 kt METAR CYYJ 031500Z 34005KT 320V020 20SM BKN011 OVC021 01/01 A3013 RMK SC6SC2 CIG VRB 8-14 SF ASOCTD SLP204
06:41
M
1 °C 20 mi 1.100 ft 360° 360° 7 kt METAR CYYJ 031441Z 36007KT 20SM BKN011 OVC018 01/01 A3013 RMK SC6SC2 CIG VRB 8-14 SLP205
06:00
M
2 °C 15 mi 1.100 ft 050° 050° 8 kt METAR CYYJ 031400Z 05008KT 15SM -RA BKN011 OVC021 02/02 A3011 RMK SC5SC3 CIG VRB 8-14 SLP198
05:00
I
2 °C 10 mi 700 ft 030° 030° 8 kt METAR CYYJ 031300Z 03008KT 10SM -RA BKN007 OVC018 02/02 A3010 RMK SF6SC2 CIG VRB 5-9 SLP195
04:00
I
2 °C 6 mi 700 ft 050° 050° 6 kt METAR CYYJ 031200Z 05006KT 6SM -RA BR BKN007 OVC015 02/02 A3008 RMK SF6SC2 CIG VRB 5-9 SLP188
03:00
I
2 °C 5 mi 700 ft 050° 050° 6 kt METAR CYYJ 031100Z 05006KT 5SM -RA BR BKN007 OVC015 02/02 A3007 RMK SF6SC2 CIG VRB 5-9 VIS LWR S SLP187
02:00
I
2 °C 2½ mi 700 ft 060° 060° 8 kt METAR CYYJ 031000Z 06008KT 2 1/2SM -RA BR BKN007 OVC015 02/02 A3007 RMK SF5SC3 CIG VRB 5-9 VIS LWR S SLP184
01:00
I
2 °C 3 mi 700 ft 060° 060° 11 - 18 kt METAR CYYJ 030900Z 06011G18KT 3SM -RA BR BKN007 OVC020 02/02 A3005 RMK SF5SC3 CIG VRB 5-9 SLP180
00:00
I
2 °C 3 mi 900 ft 060° 060° 11 kt METAR CYYJ 030800Z 06011KT 3SM -RA BR BKN009 OVC018 02/02 A3005 RMK SF5SC3 CIG VRB 6-12 SLP177

2 december 2022

Tijd Code Weer Temp. Zicht Plafond Wind METAR/SPECI
23:00
I
2 °C 2 mi 900 ft 060° 060° 13 - 18 kt METAR CYYJ 030700Z 06013G18KT 2SM -RA BR BKN009 OVC020 02/02 A3003 RMK SF6SC2 CIG VRB 6-12 SLP173
22:00
I
2 °C 6 mi 900 ft 050° 050° 12 kt METAR CYYJ 030600Z 05012KT 6SM -RA BR BKN009 OVC021 02/02 A3002 RMK SF5SC3 CIG VRB 6-12 SLP167
21:30
I
1 °C 1½ mi 800 ft 060° 060° 16 kt METAR CYYJ 030530Z 06016KT 1 1/2SM -RA BR BKN008 OVC022 01/01 A3000 RMK SC7SC1 CIG VRB 6-10 SLP162
21:00
I
2 °C 2 mi 1.300 ft 050° 050° 16 kt METAR CYYJ 030500Z 05016KT 2SM -RASN BR OVC013 02/01 A3000 RMK SC8 CIG VRB 9-17 SLP161
20:25
M
2 °C 8 mi 1.400 ft 050° 050° 16 - 22 kt METAR CYYJ 030425Z 05016G22KT 8SM -RASN OVC014 02/01 A2998 RMK SC8 SLP155
20:00
M
3 °C 20 mi 2.000 ft 060° 060° 15 - 20 kt METAR CYYJ 030400Z 06015G20KT 20SM -RA BKN020 OVC030 03/00 A2999 RMK SC6SC2 SLP157
19:37
M
3 °C 20 mi 2.000 ft 050° 050° 16 - 21 kt METAR CYYJ 030337Z 05016G21KT 20SM -RA BKN020 OVC031 03/M01 A2997 RMK SC6SC2 SLP153
19:00
V
3 °C 30 mi 3.800 ft 040° 040° 14 - 19 kt METAR CYYJ 030300Z 04014G19KT 30SM BKN038 OVC055 03/M01 A2998 RMK SC5SC3 SLP156
18:00
V
3 °C 30 mi 3.600 ft 050° 050° 12 - 22 kt METAR CYYJ 030200Z 05012G22KT 30SM BKN036 OVC055 03/M01 A2997 RMK SC5SC3 SLP152
17:03
V
2 °C 30 mi 3.400 ft 050° 050° 13 kt METAR CYYJ 030103Z 05013KT 30SM BKN034 OVC052 02/M01 A2998 RMK SC6SC2 SLP154
17:00
V
3 °C 30 mi 3.400 ft 050° 050° 12 kt METAR CYYJ 030100Z 05012KT 30SM BKN034 OVC052 03/M01 A2998 RMK SC6SC2 SLP156
16:00
M
2 °C 30 mi 2.800 ft Var Var 6 kt METAR CYYJ 030000Z VRB06KT 30SM FEW016 BKN028 OVC080 02/M01 A3000 RMK SC1SC7AC1 SC TR SLP160
15:00
M
1 °C 20 mi 2.400 ft 310° 310° 8 kt METAR CYYJ 022300Z 31008KT 20SM FEW015 BKN024 OVC035 01/00 A3000 RMK SC1SC6SC1 SLP163
14:00
M
2 °C 20 mi 2.100 ft 030° 030° 11 kt METAR CYYJ 022200Z 03011KT 20SM FEW014 BKN021 OVC035 02/00 A3001 RMK SC1SC6SC1 SLP164
13:00
M
0 °C 20 mi 1.800 ft 300° 300° 5 kt METAR CYYJ 022100Z 30005KT 270V050 20SM SCT009 BKN018 OVC030 00/M00 A3002 RMK SC3SC3SC2 SLP168
12:33
M
0 °C 20 mi 1.600 ft 300° 300° 9 kt METAR CYYJ 022033Z 30009KT 20SM SCT009 BKN016 OVC030 00/M01 A3002 RMK SC3SC4SC1 SLP169
12:15
M
0 °C 20 mi 1.600 ft 300° 300° 8 kt METAR CYYJ 022015Z 30008KT 20SM -SN SCT009 BKN016 OVC030 M00/M01 A3003 RMK SC3SC4SC1 SLP173
12:00
M
0 °C 20 mi 1.700 ft 300° 300° 7 kt METAR CYYJ 022000Z 30007KT 20SM -SN SCT010 BKN017 OVC030 M00/M01 A3004 RMK SC3SC4SC1 SLP174
11:38
M
0 °C 20 mi 1.800 ft 310° 310° 7 kt METAR CYYJ 021938Z 31007KT 20SM -SN FEW009 SCT013 BKN018 OVC030 M00/M01 A3004 RMK SC1SC3SC3SC2 SC TR SLP174
11:00
M
1 °C 15 mi 1.800 ft 040° 040° 9 kt METAR CYYJ 021900Z 04009KT 15SM -SN BKN018 OVC030 01/M02 A3005 RMK SC6SC2 VIS LWR W SLP177
10:46
M
0 °C 20 mi 1.900 ft 020° 020° 5 kt SPECI CYYJ 021846Z 02005KT 20SM -SN BKN019 OVC030 00/M03 A3005 RMK SC6SC2 VIS LWR W SLP177
10:00
M
0 °C 20 mi 2.100 ft 010° 010° 8 kt METAR CYYJ 021800Z 01008KT 20SM FEW015 BKN021 OVC036 00/M03 A3005 RMK SC1SC5SC3 SC TR SLP179
09:44
M
0 °C 20 mi 2.100 ft 010° 010° 8 kt METAR CYYJ 021744Z 01008KT 20SM FEW015 BKN021 OVC036 00/M03 A3005 RMK SC1SC5SC3 SC TR SLP180
09:00
M
0 °C 10 mi 2.100 ft 020° 020° 10 kt METAR CYYJ 021700Z 02010KT 10SM -SN BKN021 OVC035 M00/M03 A3005 RMK SC7SC1 VIS LWR W SLP177
08:49
M
0 °C 15 mi 2.200 ft 020° 020° 6 kt METAR CYYJ 021649Z 02006KT 15SM -SN BKN022 OVC035 M00/M04 A3005 RMK SC7SC1 SLP178
08:00
M
0 °C 20 mi 2.200 ft 040° 040° 11 kt METAR CYYJ 021600Z 04011KT 20SM BKN022 OVC035 M00/M04 A3003 RMK SC5SC3 SLP172
07:29
M
0 °C 20 mi 2.300 ft 060° 060° 14 kt METAR CYYJ 021529Z 06014KT 20SM FEW015 BKN023 OVC035 M00/M04 A3002 RMK SC1SC5SC2 SLP170
07:00
M
0 °C 15 mi 2.300 ft 050° 050° 11 kt METAR CYYJ 021500Z 05011KT 15SM -SN OVC023 M00/M04 A3002 RMK SC8 SLP170
06:00
M
0 °C 15 mi 2.400 ft 040° 040° 9 kt METAR CYYJ 021400Z 04009KT 15SM -SN OVC024 M00/M04 A3002 RMK SC8 SLP170
05:00
M
0 °C 15 mi 2.500 ft 060° 060° 9 kt METAR CYYJ 021300Z 06009KT 15SM -SN OVC025 M00/M04 A3002 RMK SC8 SLP168
04:00
M
0 °C 15 mi 2.400 ft 050° 050° 12 kt METAR CYYJ 021200Z 05012KT 15SM -SN BKN024 OVC052 M00/M04 A3001 RMK SC7SC1 SLP165
03:00
M
0 °C 20 mi 2.700 ft 060° 060° 10 kt METAR CYYJ 021100Z 06010KT 20SM FEW017 BKN027 OVC053 M00/M04 A3001 RMK SC1SC5SC3 SC TR SLP166
02:19
V
0 °C 20 mi 5.400 ft 070° 070° 9 kt METAR CYYJ 021019Z 07009KT 20SM SCT027 BKN054 OVC081 M00/M04 A3000 RMK SC3SC4AC1 SLP163
02:00
V
0 °C 15 mi 5.200 ft 070° 070° 8 kt METAR CYYJ 021000Z 07008KT 15SM -SN SCT025 BKN052 OVC080 M00/M04 A3000 RMK SC3SC4AC1 SLP160
01:06
M
0 °C 15 mi 2.300 ft 060° 060° 9 kt METAR CYYJ 020906Z 06009KT 15SM -SN BKN023 BKN040 BKN064 OVC080 M00/M04 A2998 RMK SC5SC1SC1AC1 SLP154
00:00
M
0 °C 20 mi 2.600 ft 060° 060° 8 kt METAR CYYJ 020800Z 06008KT 20SM BKN026 BKN068 M00/M05 A2997 RMK SC6AC1 SLP153

1 december 2022

Tijd Code Weer Temp. Zicht Plafond Wind METAR/SPECI
23:00
V
-1 °C 20 mi 6.800 ft 060° 060° 6 kt METAR CYYJ 020700Z 06006KT 20SM SCT026 BKN068 M01/M06 A2994 RMK SC3AC3 SLP143
22:00
V
-1 °C 20 mi 6.000 ft 060° 060° 5 kt METAR CYYJ 020600Z 06005KT 030V090 20SM SCT029 BKN060 M01/M07 A2993 RMK SC4SC2 SLP138
21:00
V
-1 °C 20 mi 5.400 ft 060° 060° 6 kt METAR CYYJ 020500Z 06006KT 20SM SCT026 BKN054 M01/M06 A2991 RMK SC3SC3 SLP130
20:00
V
-1 °C 20 mi 4.400 ft 090° 090° 8 kt METAR CYYJ 020400Z 09008KT 20SM SCT027 BKN044 M01/M06 A2989 RMK SC3SC2 SLP124
19:00
M
-1 °C 30 mi 2.800 ft 110° 110° 5 kt METAR CYYJ 020300Z 11005KT 30SM BKN028 M01/M06 A2988 RMK SC5 SLP121
18:00
M
-3 °C 30 mi 2.800 ft Var 000° 0 kt METAR CYYJ 020200Z 00000KT 30SM BKN028 M03/M05 A2986 RMK SC5 SLP116
17:00
V
-1 °C 30 mi - 090° 090° 4 kt METAR CYYJ 020100Z 09004KT 30SM SCT030 SCT050 M01/M06 A2984 RMK SC3SC1 SC TR SLP108
16:00
V
-1 °C 30 mi - 090° 090° 4 kt METAR CYYJ 020000Z 09004KT 30SM FEW035 FEW050 M01/M06 A2982 RMK SC2SC1 SC TR SLP102
15:00
V
1 °C 30 mi 3.300 ft 090° 090° 4 kt METAR CYYJ 012300Z 09004KT 30SM BKN033 01/M06 A2981 RMK SC5 SLP097
14:00
V
0 °C 30 mi - 090° 090° 5 kt METAR CYYJ 012200Z 09005KT 30SM SCT031 SCT045 00/M06 A2979 RMK SC4SC1 SC TR SLP091
13:00
M
0 °C 30 mi 2.700 ft 040° 040° 4 kt METAR CYYJ 012100Z 04004KT 30SM BKN027 BKN040 00/M05 A2979 RMK SC6SC1 SLP090
12:00
M
0 °C 30 mi 2.600 ft 360° 360° 4 kt METAR CYYJ 012000Z 36004KT 340V060 30SM BKN026 BKN040 M00/M05 A2977 RMK SC5SC2 SLP085
11:00
M
0 °C 30 mi 2.600 ft 360° 360° 10 kt METAR CYYJ 011900Z 36010KT 30SM BKN026 BKN040 M00/M05 A2977 RMK SC6SC1 SLP083
10:00
M
0 °C 30 mi 2.700 ft 340° 340° 8 kt METAR CYYJ 011800Z 34008KT 30SM BKN027 BKN045 00/M05 A2975 RMK SC6SC1 SLP077
09:00
M
0 °C 30 mi 2.900 ft 340° 340° 9 kt METAR CYYJ 011700Z 34009KT 30SM BKN029 BKN046 00/M05 A2974 RMK SC6SC1 SLP073
08:00
M
0 °C 30 mi 2.900 ft 350° 350° 9 kt METAR CYYJ 011600Z 35009KT 30SM BKN029 BKN048 00/M04 A2971 RMK SC5SC2 SLP064
07:00
V
0 °C 20 mi 4.600 ft 010° 010° 12 - 17 kt METAR CYYJ 011500Z 01012G17KT 20SM FEW025 SCT035 BKN046 00/M04 A2968 RMK SC1SC2SC4 SLP053
06:00
V
0 °C 20 mi - 360° 360° 13 - 18 kt METAR CYYJ 011400Z 36013G18KT 20SM FEW035 SCT051 00/M04 A2965 RMK SC2SC3 SLP043
05:00
V
0 °C 15 mi 5.600 ft 350° 350° 11 kt METAR CYYJ 011300Z 35011KT 15SM FEW015 FEW022 SCT046 BKN056 00/M03 A2963 RMK SC1SC1SC1SC2 SLP037
04:00
V
0 °C 15 mi 4.400 ft 360° 360° 8 kt METAR CYYJ 011200Z 36008KT 15SM FEW015 BKN044 BKN110 00/M02 A2961 RMK SC2SC3AC1 SLP031
03:33
V
1 °C 15 mi 5.200 ft 350° 350° 10 kt METAR CYYJ 011133Z 35010KT 15SM SCT019 BKN052 BKN110 01/M02 A2961 RMK SC3SC2AC2 SLP030
03:00
V
1 °C 12 mi 5.800 ft 360° 360° 7 kt METAR CYYJ 011100Z 36007KT 12SM -SN FEW015 SCT025 BKN058 BKN110 01/M01 A2961 RMK SC2SC2SC2AC1 SLP029
02:00
M
1 °C 10 mi 2.000 ft 330° 330° 7 kt METAR CYYJ 011000Z 33007KT 10SM -SN FEW006 SCT011 BKN020 BKN065 BKN110 01/00 A2960 RMK SF1SC3SC1SC1AC1 SLP025

Wij en derden volgen je internetgedrag op onze website met cookies. Als je doorgaat, gaan we ervan uit dat je akkoord gaat met onze cookiebeleid.